Time;durP1;ratioP1;P1;durP2;ratioP2;P2;SDS_P1;SDS_P2;PMS_P1;PMS_P2;Temp;Humidity;BMP_temperature;BMP_pressure;BME280_temperature;BME280_humidity;BME280_pressure;Samples;Min_cycle;Max_cycle;Signal;HPM_P1;HPM_P2
2021/09/23 00:03:54;;;;;;;28.10;25.05;;;22.80;48.10;;;;;;4376767;61;21122;-25
2021/09/23 00:08:55;;;;;;;27.67;24.12;;;22.80;48.10;;;;;;4337723;61;21664;-32
2021/09/23 00:13:58;;;;;;;29.50;24.08;;;22.80;48.20;;;;;;4338170;61;21075;-32
2021/09/23 00:18:58;;;;;;;27.77;23.70;;;22.80;48.10;;;;;;4342804;61;21591;-32
2021/09/23 00:23:59;;;;;;;28.08;23.58;;;22.80;48.10;;;;;;4339286;61;21105;-32
2021/09/23 00:29:03;;;;;;;26.73;22.75;;;22.80;48.20;;;;;;4329959;61;21154;-34
2021/09/23 00:34:04;;;;;;;26.37;22.48;;;22.80;48.20;;;;;;4340146;61;21618;-34
2021/09/23 00:39:05;;;;;;;25.85;22.80;;;22.80;48.30;;;;;;4328147;61;21060;-29
2021/09/23 00:44:17;;;;;;;26.50;22.83;;;22.80;48.20;;;;;;4334059;60;21085;-33
2021/09/23 00:49:17;;;;;;;24.98;20.77;;;22.80;48.30;;;;;;4353071;61;21064;-33
2021/09/23 00:54:18;;;;;;;25.15;22.30;;;22.80;48.30;;;;;;4328472;62;21101;-34
2021/09/23 00:59:19;;;;;;;23.80;20.92;;;22.80;48.30;;;;;;4332747;61;21104;-30
2021/09/23 01:04:20;;;;;;;24.55;21.73;;;22.80;48.40;;;;;;4364139;61;21411;-33
2021/09/23 01:09:21;;;;;;;25.45;21.92;;;22.80;48.30;;;;;;4342219;61;21235;-32
2021/09/23 01:14:21;;;;;;;24.70;20.73;;;22.80;48.40;;;;;;4354362;60;22491;-33
2021/09/23 01:19:22;;;;;;;25.92;21.30;;;22.80;48.50;;;;;;4344994;61;21148;-33
2021/09/23 01:24:25;;;;;;;24.50;20.73;;;22.80;48.40;;;;;;4378729;61;21114;-31
2021/09/23 01:29:26;;;;;;;23.35;20.27;;;22.80;48.40;;;;;;4355019;61;21678;-32
2021/09/23 01:34:27;;;;;;;22.92;19.77;;;22.80;48.40;;;;;;4331178;60;21092;-34
2021/09/23 01:39:29;;;;;;;22.85;20.08;;;22.80;48.40;;;;;;4347337;61;21089;-29
2021/09/23 01:44:30;;;;;;;22.52;19.67;;;22.80;48.50;;;;;;4341466;61;21152;-28
2021/09/23 01:49:31;;;;;;;21.85;18.87;;;22.80;48.50;;;;;;4329168;64;21096;-32
2021/09/23 01:54:32;;;;;;;22.20;19.52;;;22.80;48.50;;;;;;4342654;61;21156;-34
2021/09/23 01:59:32;;;;;;;22.30;19.00;;;22.80;48.50;;;;;;4387285;60;21089;-30
2021/09/23 02:04:33;;;;;;;21.40;19.00;;;22.80;48.60;;;;;;4350642;61;21564;-32
2021/09/23 02:09:34;;;;;;;20.67;18.23;;;22.80;48.60;;;;;;4328044;61;21503;-33
2021/09/23 02:14:35;;;;;;;22.67;18.77;;;22.80;48.60;;;;;;4328623;64;21191;-32
2021/09/23 02:19:35;;;;;;;19.60;17.50;;;22.80;48.60;;;;;;4337969;61;21092;-33
2021/09/23 02:24:37;;;;;;;21.15;18.12;;;22.80;48.60;;;;;;4342492;61;21136;-31
2021/09/23 02:29:39;;;;;;;20.12;17.50;;;22.80;48.60;;;;;;4342547;61;21072;-33
2021/09/23 02:34:40;;;;;;;20.50;17.98;;;22.80;48.60;;;;;;4343419;61;22338;-33
2021/09/23 02:39:42;;;;;;;20.45;17.48;;;22.80;48.70;;;;;;4328580;64;22070;-34
2021/09/23 02:44:43;;;;;;;20.90;18.08;;;22.70;48.60;;;;;;4343528;61;21200;-33
2021/09/23 02:49:44;;;;;;;20.73;17.67;;;22.80;48.70;;;;;;4341036;61;21092;-32
2021/09/23 02:54:45;;;;;;;20.88;17.52;;;22.70;48.70;;;;;;4331627;61;21157;-32
2021/09/23 02:59:45;;;;;;;18.25;16.33;;;22.70;48.70;;;;;;4334954;61;21073;-31
2021/09/23 03:04:46;;;;;;;18.95;16.45;;;22.80;48.70;;;;;;4358627;60;21065;-28
2021/09/23 03:09:47;;;;;;;17.80;15.88;;;22.70;48.70;;;;;;4328257;64;21215;-32
2021/09/23 03:14:48;;;;;;;17.87;15.98;;;22.80;48.80;;;;;;4340453;61;21114;-27
2021/09/23 03:19:48;;;;;;;17.55;15.73;;;22.70;48.70;;;;;;4329685;61;21173;-34
2021/09/23 03:24:49;;;;;;;17.98;16.08;;;22.70;48.70;;;;;;4341367;61;21077;-34
2021/09/23 03:29:50;;;;;;;17.08;15.23;;;22.70;49.40;;;;;;4391036;61;21121;-33
2021/09/23 03:34:51;;;;;;;16.50;14.70;;;22.70;48.80;;;;;;4345567;61;22357;-33
2021/09/23 03:39:52;;;;;;;17.95;16.05;;;22.70;48.80;;;;;;4342909;60;21571;-33
2021/09/23 03:44:53;;;;;;;16.48;14.77;;;22.70;48.80;;;;;;4336155;61;21057;-27
2021/09/23 03:49:55;;;;;;;16.77;14.77;;;22.80;48.90;;;;;;4329339;61;21126;-33
2021/09/23 03:54:56;;;;;;;17.02;15.23;;;22.70;48.80;;;;;;4343068;60;21100;-34
2021/09/23 03:59:56;;;;;;;16.52;14.43;;;22.70;48.90;;;;;;4335307;60;21065;-31
2021/09/23 04:04:57;;;;;;;16.15;14.45;;;22.70;48.90;;;;;;4329534;64;21101;-27
2021/09/23 04:09:58;;;;;;;15.82;14.13;;;22.70;48.90;;;;;;4355919;61;21097;-28
2021/09/23 04:14:59;;;;;;;15.10;13.50;;;22.70;48.90;;;;;;4347014;61;21086;-28
2021/09/23 04:20:00;;;;;;;15.50;13.80;;;22.70;49.00;;;;;;4329500;61;21117;-30
2021/09/23 04:25:01;;;;;;;16.20;13.80;;;22.70;49.00;;;;;;4328691;64;21176;-31
2021/09/23 04:30:04;;;;;;;15.95;14.18;;;22.70;49.00;;;;;;4351817;61;21134;-28
2021/09/23 04:35:05;;;;;;;15.77;14.00;;;22.70;49.00;;;;;;4368615;61;21093;-32
2021/09/23 04:40:08;;;;;;;16.50;13.70;;;22.70;49.10;;;;;;4344652;61;21637;-32
2021/09/23 04:45:10;;;;;;;15.93;13.50;;;22.70;49.10;;;;;;4342580;61;21064;-32
2021/09/23 04:50:11;;;;;;;13.73;12.30;;;22.70;49.20;;;;;;4329040;64;21154;-33
2021/09/23 04:55:12;;;;;;;14.90;12.88;;;22.70;49.20;;;;;;4328140;64;21097;-32
2021/09/23 05:00:13;;;;;;;15.95;13.02;;;22.70;49.30;;;;;;4328542;64;21077;-33
2021/09/23 05:05:14;;;;;;;14.18;12.70;;;22.70;49.30;;;;;;4343475;61;21077;-32
2021/09/23 05:10:15;;;;;;;14.50;12.63;;;22.70;49.30;;;;;;4362393;61;21140;-33
2021/09/23 05:15:16;;;;;;;13.98;12.15;;;22.70;49.20;;;;;;4337750;61;21663;-33
2021/09/23 05:20:18;;;;;;;13.90;12.40;;;22.70;49.30;;;;;;4343969;61;21085;-34
2021/09/23 05:25:19;;;;;;;13.52;11.88;;;22.70;49.30;;;;;;4378234;61;21647;-33
2021/09/23 05:30:20;;;;;;;13.68;12.25;;;22.70;49.40;;;;;;4337435;61;21049;-34
2021/09/23 05:35:21;;;;;;;13.90;12.43;;;22.70;49.30;;;;;;4336675;61;21164;-34
2021/09/23 05:40:22;;;;;;;13.38;11.98;;;22.70;49.30;;;;;;4337482;61;21098;-32
2021/09/23 05:45:23;;;;;;;13.43;12.02;;;22.70;49.30;;;;;;4354037;61;21053;-35
2021/09/23 05:50:24;;;;;;;12.60;11.35;;;22.70;49.30;;;;;;4368997;60;22331;-33
2021/09/23 05:55:25;;;;;;;13.13;11.82;;;22.70;49.30;;;;;;4343742;61;21197;-34
2021/09/23 06:00:26;;;;;;;15.82;12.32;;;22.70;49.30;;;;;;4335809;61;21626;-32
2021/09/23 06:05:26;;;;;;;13.23;11.73;;;22.70;49.30;;;;;;4350024;61;21069;-33
2021/09/23 06:10:27;;;;;;;14.00;12.48;;;22.70;49.30;;;;;;4340397;61;21101;-34
2021/09/23 06:15:28;;;;;;;14.63;12.68;;;22.70;49.30;;;;;;4328338;64;21570;-32
2021/09/23 06:20:29;;;;;;;15.18;12.13;;;22.70;49.40;;;;;;4346066;61;21527;-32
2021/09/23 06:25:30;;;;;;;13.95;12.40;;;22.70;49.30;;;;;;4333159;61;21068;-34
2021/09/23 06:30:31;;;;;;;13.75;11.63;;;22.70;49.30;;;;;;4329055;61;21073;-31
2021/09/23 06:35:32;;;;;;;14.15;12.55;;;22.70;49.30;;;;;;4341144;61;21080;-33
2021/09/23 06:40:33;;;;;;;12.82;11.43;;;22.70;49.30;;;;;;4340857;61;21089;-34
2021/09/23 06:45:34;;;;;;;14.15;11.95;;;22.70;49.30;;;;;;4328511;64;21157;-32
2021/09/23 06:50:34;;;;;;;14.75;12.43;;;22.70;49.30;;;;;;4332807;61;21174;-33
2021/09/23 06:55:35;;;;;;;15.55;12.80;;;22.70;49.50;;;;;;4350997;60;21105;-36
2021/09/23 07:00:36;;;;;;;13.32;11.93;;;22.70;49.30;;;;;;4328232;64;21104;-33
2021/09/23 07:05:41;;;;;;;14.63;12.52;;;22.70;49.30;;;;;;4353440;61;22070;-32
2021/09/23 07:10:41;;;;;;;14.27;12.37;;;22.60;49.30;;;;;;4328006;64;21634;-33
2021/09/23 07:15:42;;;;;;;14.07;12.13;;;22.60;49.40;;;;;;4359951;61;21085;-34
2021/09/23 07:20:43;;;;;;;13.48;11.82;;;22.60;49.30;;;;;;4334847;61;21156;-31
2021/09/23 07:25:44;;;;;;;13.05;11.65;;;22.70;49.30;;;;;;4339494;60;21053;-34
2021/09/23 07:30:45;;;;;;;14.80;12.15;;;22.60;49.30;;;;;;4335174;60;21080;-33
2021/09/23 07:35:46;;;;;;;14.95;11.98;;;22.70;49.40;;;;;;4340207;61;21131;-32
2021/09/23 07:40:47;;;;;;;14.57;13.07;;;22.60;49.30;;;;;;4341360;61;21067;-33
2021/09/23 07:45:48;;;;;;;14.63;12.30;;;22.60;49.30;;;;;;4330795;61;21070;-32
2021/09/23 07:50:49;;;;;;;15.75;12.63;;;22.70;49.30;;;;;;4334603;61;21100;-36
2021/09/23 07:55:50;;;;;;;15.80;12.50;;;22.60;49.30;;;;;;4339238;61;21555;-34
2021/09/23 08:00:52;;;;;;;15.23;12.45;;;22.60;49.30;;;;;;4335907;61;21061;-32
2021/09/23 08:05:52;;;;;;;14.65;13.05;;;22.60;49.30;;;;;;4358092;61;21584;-30
2021/09/23 08:10:53;;;;;;;17.62;12.95;;;22.70;49.40;;;;;;4351665;61;21093;-33
2021/09/23 08:15:54;;;;;;;14.23;12.73;;;22.60;49.30;;;;;;4349233;61;21065;-34
2021/09/23 08:20:55;;;;;;;15.48;13.40;;;22.70;49.40;;;;;;4328681;64;21084;-33
2021/09/23 08:25:56;;;;;;;15.23;13.62;;;22.60;49.30;;;;;;4329068;64;21742;-33
2021/09/23 08:30:58;;;;;;;16.58;14.07;;;22.60;49.40;;;;;;4348988;61;21138;-34
2021/09/23 08:35:59;;;;;;;16.42;14.60;;;22.60;49.30;;;;;;4339842;61;21602;-31
2021/09/23 08:41:00;;;;;;;16.75;14.95;;;22.60;49.30;;;;;;4336427;61;21069;-33
2021/09/23 08:46:03;;;;;;;17.85;15.10;;;22.60;49.30;;;;;;4328899;61;21118;-29
2021/09/23 08:51:04;;;;;;;19.15;15.10;;;22.70;49.40;;;;;;4328408;64;21507;-32
2021/09/23 08:56:05;;;;;;;18.27;15.77;;;22.60;49.30;;;;;;4328297;64;21060;-32
2021/09/23 09:01:15;;;;;;;18.15;15.80;;;22.60;49.30;;;;;;4328578;64;21065;-32
2021/09/23 09:06:17;;;;;;;20.75;16.73;;;22.60;49.30;;;;;;4336274;61;21547;-31
2021/09/23 09:11:17;;;;;;;21.52;17.00;;;22.70;49.70;;;;;;4327642;64;21136;-30
2021/09/23 09:16:27;;;;;;;27.50;21.52;;;22.70;50.00;;;;;;4367423;61;21195;-32
2021/09/23 09:21:28;;;;;;;61.35;44.35;;;22.80;49.70;;;;;;4340365;61;21053;-30
2021/09/23 09:26:32;;;;;;;69.90;50.47;;;22.80;48.30;;;;;;4365224;61;21210;-32
2021/09/23 09:31:35;;;;;;;60.25;42.17;;;22.80;47.30;;;;;;4331974;61;21539;-28
2021/09/23 09:36:40;;;;;;;57.03;41.85;;;22.80;46.70;;;;;;4328635;61;21085;-31
2021/09/23 09:41:43;;;;;;;59.88;44.35;;;22.80;46.40;;;;;;4370222;61;21073;-27
2021/09/23 09:46:52;;;;;;;68.15;47.75;;;22.80;46.10;;;;;;4355888;60;21215;-30
2021/09/23 09:51:58;;;;;;;60.58;44.15;;;22.80;46.10;;;;;;4333181;61;21544;-35
2021/09/23 09:57:03;;;;;;;58.75;43.87;;;22.90;45.90;;;;;;4367046;61;21097;-29
2021/09/23 10:02:04;;;;;;;54.53;39.35;;;22.90;45.50;;;;;;4343844;61;21072;-32
2021/09/23 10:07:06;;;;;;;57.20;42.00;;;22.90;45.20;;;;;;4339219;60;21718;-32
2021/09/23 10:12:08;;;;;;;59.30;43.67;;;22.90;44.80;;;;;;4355839;60;21188;-34
2021/09/23 10:17:09;;;;;;;60.50;43.92;;;22.90;45.90;;;;;;4369695;60;21093;-32
2021/09/23 10:22:14;;;;;;;57.75;42.83;;;22.90;45.20;;;;;;4341813;60;21348;-34
2021/09/23 10:32:36;;;;;;;92.97;71.25;;;22.90;45.20;;;;;;4327383;61;21089;-31
2021/09/23 10:37:37;;;;;;;115.90;91.12;;;22.90;45.20;;;;;;4346832;61;21081;-31
2021/09/23 10:42:39;;;;;;;109.40;85.10;;;22.90;44.70;;;;;;4329528;61;21189;-31
2021/09/23 10:47:46;;;;;;;100.87;78.55;;;22.90;44.50;;;;;;4340325;61;21128;-33
2021/09/23 10:52:47;;;;;;;104.85;83.72;;;22.90;44.60;;;;;;4328202;64;22097;-32
2021/09/23 10:57:49;;;;;;;113.28;87.10;;;22.90;44.50;;;;;;4332611;61;21108;-33
2021/09/23 11:02:52;;;;;;;105.18;82.70;;;22.90;45.10;;;;;;4338494;61;21153;-32
2021/09/23 11:07:54;;;;;;;102.55;79.50;;;22.90;44.80;;;;;;4336404;60;21100;-32
2021/09/23 11:12:59;;;;;;;89.00;70.03;;;22.90;44.70;;;;;;4357364;61;21572;-30
2021/09/23 11:18:00;;;;;;;88.70;67.18;;;22.90;44.70;;;;;;4363983;61;21130;-29
2021/09/23 11:23:08;;;;;;;85.50;66.75;;;23.00;44.60;;;;;;4336140;61;21057;-29
2021/09/23 11:28:10;;;;;;;85.05;64.32;;;23.00;44.40;;;;;;4334363;61;21067;-31
2021/09/23 11:33:14;;;;;;;72.03;57.38;;;23.00;44.40;;;;;;4328209;64;21064;-33
2021/09/23 11:38:20;;;;;;;65.75;49.25;;;23.00;44.30;;;;;;4339405;60;21139;-31
2021/09/23 11:43:26;;;;;;;65.62;49.10;;;23.00;44.00;;;;;;4329701;61;21234;-29
2021/09/23 11:48:30;;;;;;;61.83;46.72;;;23.00;43.90;;;;;;4337424;61;21057;-31
2021/09/23 11:53:33;;;;;;;58.55;46.40;;;23.00;44.00;;;;;;4344575;61;21057;-32
2021/09/23 11:58:38;;;;;;;56.65;46.13;;;23.00;44.00;;;;;;4340019;61;21080;-31
2021/09/23 12:03:46;;;;;;;53.75;45.33;;;23.00;44.10;;;;;;4332527;61;21518;-34
2021/09/23 12:08:47;;;;;;;58.60;44.58;;;23.00;44.20;;;;;;4344457;61;21085;-30
2021/09/23 12:13:50;;;;;;;57.35;44.80;;;23.00;44.30;;;;;;4327988;64;21146;-33
2021/09/23 12:18:51;;;;;;;54.95;43.28;;;23.00;44.40;;;;;;4336680;61;21615;-33
2021/09/23 12:23:57;;;;;;;53.38;42.65;;;23.00;44.40;;;;;;4371302;61;21237;-32
2021/09/23 12:29:09;;;;;;;50.80;40.38;;;23.00;44.50;;;;;;4338872;61;21145;-26
2021/09/23 12:34:24;;;;;;;49.40;41.20;;;23.10;44.70;;;;;;4345708;61;21051;-30
2021/09/23 12:39:34;;;;;;;48.87;39.22;;;23.10;45.00;;;;;;4329249;61;21097;-33
2021/09/23 12:44:37;;;;;;;48.78;39.97;;;23.10;45.30;;;;;;4330449;61;21069;-29
2021/09/23 12:49:59;;;;;;;48.42;38.35;;;23.20;45.60;;;;;;4355126;61;21213;-31
2021/09/23 12:55:22;;;;;;;51.25;39.17;;;23.20;46.60;;;;;;4358594;61;21153;-34
2021/09/23 13:00:31;;;;;;;45.53;37.15;;;23.30;46.20;;;;;;4341051;61;21632;-32
2021/09/23 13:05:33;;;;;;;47.72;36.92;;;23.30;46.40;;;;;;4328298;64;21297;-32
2021/09/23 13:10:35;;;;;;;44.00;37.50;;;23.30;46.60;;;;;;4328204;61;21114;-30
2021/09/23 13:15:54;;;;;;;45.88;37.20;;;23.40;47.00;;;;;;4344279;61;21254;-30
2021/09/23 13:20:57;;;;;;;43.40;35.38;;;23.40;47.20;;;;;;4354934;60;21098;-28
2021/09/23 13:26:04;;;;;;;47.35;35.13;;;23.40;47.30;;;;;;4328201;64;21189;-31
2021/09/23 13:31:07;;;;;;;44.58;36.97;;;23.40;47.60;;;;;;4351760;61;22102;-32
2021/09/23 13:36:08;;;;;;;44.97;36.72;;;23.50;47.70;;;;;;4337967;61;21120;-30
2021/09/23 13:41:09;;;;;;;42.22;35.15;;;23.50;48.00;;;;;;4338135;61;21064;-31
2021/09/23 13:46:10;;;;;;;43.00;36.05;;;23.50;48.20;;;;;;4342290;61;21173;-33
2021/09/23 13:51:13;;;;;;;41.15;34.25;;;23.50;48.40;;;;;;4358439;61;21057;-34
2021/09/23 13:56:14;;;;;;;42.35;33.78;;;23.60;48.70;;;;;;4330538;61;21542;-28
2021/09/23 14:01:15;;;;;;;40.92;33.20;;;23.60;49.50;;;;;;4331190;61;21073;-32
2021/09/23 14:06:16;;;;;;;40.17;32.90;;;23.60;49.00;;;;;;4340157;61;21528;-29
2021/09/23 14:11:17;;;;;;;40.30;33.03;;;23.60;49.20;;;;;;4327967;61;21089;-31
2021/09/23 14:16:18;;;;;;;48.67;34.63;;;23.60;49.50;;;;;;4350447;61;21769;-33
2021/09/23 14:21:19;;;;;;;37.25;32.75;;;23.60;49.50;;;;;;4331971;61;21085;-32
2021/09/23 14:26:26;;;;;;;39.45;33.00;;;23.60;49.50;;;;;;4327924;61;21484;-32
2021/09/23 14:31:27;;;;;;;39.17;33.67;;;23.60;49.60;;;;;;4343884;61;21651;-32
2021/09/23 14:36:30;;;;;;;41.22;33.75;;;23.60;49.60;;;;;;4326349;61;21578;-29
2021/09/23 14:41:31;;;;;;;44.25;38.38;;;23.60;49.40;;;;;;4338725;61;21612;-32
2021/09/23 14:46:32;;;;;;;64.07;45.08;;;23.60;49.30;;;;;;4333054;61;21110;-31
2021/09/23 14:51:33;;;;;;;57.83;43.47;;;23.50;47.90;;;;;;4329271;64;21144;-32
2021/09/23 14:56:34;;;;;;;51.83;37.35;;;23.50;45.70;;;;;;4327833;64;21140;-34
2021/09/23 15:01:35;;;;;;;47.53;36.45;;;23.40;43.30;;;;;;4329002;61;21160;-32
2021/09/23 15:06:36;;;;;;;44.28;35.00;;;23.40;44.30;;;;;;4335392;61;21141;-33
2021/09/23 15:11:37;;;;;;;44.65;34.50;;;23.30;43.70;;;;;;4331441;61;21097;-33
2021/09/23 15:16:37;;;;;;;46.67;35.45;;;23.30;43.90;;;;;;4343775;61;21176;-35
2021/09/23 15:21:38;;;;;;;48.03;35.00;;;23.30;44.10;;;;;;4328755;64;21080;-32
2021/09/23 15:26:39;;;;;;;46.53;33.45;;;23.20;44.20;;;;;;4329050;64;21118;-33
2021/09/23 15:31:40;;;;;;;43.67;34.10;;;23.20;44.40;;;;;;4387869;61;21049;-32
2021/09/23 15:36:41;;;;;;;39.90;32.72;;;23.20;44.40;;;;;;4340944;61;22124;-28
2021/09/23 15:41:42;;;;;;;41.37;32.30;;;23.10;44.50;;;;;;4344643;60;21137;-31
2021/09/23 15:46:43;;;;;;;38.15;31.85;;;23.10;44.60;;;;;;4333730;61;21119;-30
2021/09/23 15:51:43;;;;;;;39.40;31.62;;;23.10;44.80;;;;;;4328187;64;21069;-31
2021/09/23 15:56:44;;;;;;;39.75;31.92;;;23.10;44.90;;;;;;4333461;61;21151;-31
2021/09/23 16:01:48;;;;;;;35.88;28.73;;;23.10;45.00;;;;;;4337063;61;21129;-35
2021/09/23 16:06:49;;;;;;;38.35;30.17;;;23.10;45.00;;;;;;4369146;60;21072;-33
2021/09/23 16:11:50;;;;;;;38.60;30.40;;;23.10;45.10;;;;;;4337537;61;21618;-30
2021/09/23 16:16:51;;;;;;;36.50;29.83;;;23.00;45.10;;;;;;4329008;61;21122;-32
2021/09/23 16:21:52;;;;;;;35.97;29.50;;;23.00;45.20;;;;;;4328852;64;21591;-33
2021/09/23 16:26:53;;;;;;;35.25;28.33;;;23.10;45.30;;;;;;4328180;64;21189;-34
2021/09/23 16:31:54;;;;;;;35.83;28.58;;;23.00;45.30;;;;;;4344616;61;21622;-31
2021/09/23 16:36:55;;;;;;;36.00;28.35;;;23.00;45.40;;;;;;4367210;61;21172;-32
2021/09/23 16:41:56;;;;;;;33.95;27.87;;;23.00;45.50;;;;;;4346590;61;21112;-31
2021/09/23 16:46:58;;;;;;;34.95;27.80;;;23.00;45.40;;;;;;4342150;61;21053;-30
2021/09/23 16:51:58;;;;;;;33.00;28.35;;;23.00;45.50;;;;;;4328799;64;21065;-33
2021/09/23 16:56:59;;;;;;;33.10;27.37;;;23.00;45.60;;;;;;4339989;60;21575;-32
2021/09/23 17:02:00;;;;;;;34.08;27.90;;;23.00;46.10;;;;;;4328245;64;21692;-33
2021/09/23 17:07:02;;;;;;;34.35;28.30;;;23.00;45.60;;;;;;4331356;61;21187;-30
2021/09/23 17:12:03;;;;;;;32.22;26.87;;;23.00;45.80;;;;;;4378429;61;21588;-33
2021/09/23 17:17:04;;;;;;;32.70;27.85;;;23.00;45.70;;;;;;4367906;61;21065;-33
2021/09/23 17:22:05;;;;;;;31.02;26.67;;;23.00;45.80;;;;;;4330754;61;21093;-32
2021/09/23 17:27:06;;;;;;;33.83;27.65;;;23.00;45.80;;;;;;4352482;61;21069;-33
2021/09/23 17:32:07;;;;;;;32.65;26.55;;;22.90;45.80;;;;;;4353956;60;21080;-34
2021/09/23 17:37:08;;;;;;;33.80;28.60;;;22.90;45.90;;;;;;4340966;61;21097;-33
2021/09/23 17:42:09;;;;;;;30.00;26.05;;;23.00;45.90;;;;;;4342145;61;21105;-33
2021/09/23 17:47:10;;;;;;;30.98;27.23;;;23.00;46.00;;;;;;4328196;64;21088;-30
2021/09/23 17:52:11;;;;;;;34.10;27.73;;;22.90;46.00;;;;;;4342986;61;21077;-31
2021/09/23 17:57:11;;;;;;;33.25;28.38;;;22.90;46.10;;;;;;4330961;61;21096;-34
2021/09/23 18:02:12;;;;;;;31.83;27.20;;;23.00;46.10;;;;;;4339204;61;21644;-34
2021/09/23 18:07:13;;;;;;;34.15;27.77;;;22.90;46.20;;;;;;4332407;61;21085;-29
2021/09/23 18:12:14;;;;;;;35.22;28.45;;;22.90;46.10;;;;;;4344839;60;21137;-32
2021/09/23 18:17:15;;;;;;;32.90;27.27;;;22.90;46.20;;;;;;4360219;60;21204;-35
2021/09/23 18:22:16;;;;;;;32.00;26.92;;;22.90;46.20;;;;;;4334270;61;21073;-31
2021/09/23 18:27:17;;;;;;;31.58;26.25;;;22.90;46.30;;;;;;4366919;61;21076;-33
2021/09/23 18:32:18;;;;;;;31.80;28.05;;;22.90;46.30;;;;;;4328596;64;21151;-32
2021/09/23 18:37:19;;;;;;;37.05;29.27;;;22.90;46.40;;;;;;4328192;64;21563;-31
2021/09/23 18:42:19;;;;;;;32.55;27.77;;;22.90;46.40;;;;;;4328797;64;21160;-33
2021/09/23 18:47:20;;;;;;;33.00;28.50;;;22.90;46.50;;;;;;4331570;61;21158;-33
2021/09/23 18:52:21;;;;;;;33.28;27.83;;;22.90;46.50;;;;;;4328530;64;21106;-32
2021/09/23 18:57:23;;;;;;;33.10;26.92;;;22.90;46.50;;;;;;4416746;60;21656;-24
2021/09/23 19:02:24;;;;;;;34.72;29.55;;;22.90;46.50;;;;;;4361856;61;21065;-30
2021/09/23 19:07:25;;;;;;;33.72;29.17;;;22.90;46.60;;;;;;4335508;61;21602;-32
2021/09/23 19:12:26;;;;;;;35.85;28.50;;;22.90;46.60;;;;;;4347140;61;21138;-29
2021/09/23 19:17:27;;;;;;;36.80;29.85;;;22.90;46.60;;;;;;4357234;61;22179;-32
2021/09/23 19:22:28;;;;;;;33.13;28.90;;;22.90;46.70;;;;;;4337200;60;21072;-31
2021/09/23 19:27:29;;;;;;;34.97;29.20;;;22.90;46.70;;;;;;4340195;60;21104;-31
2021/09/23 19:32:31;;;;;;;33.88;28.60;;;22.90;46.70;;;;;;4384037;61;21619;-33
2021/09/23 19:37:35;;;;;;;33.60;28.83;;;22.90;46.70;;;;;;4369891;61;21089;-32
2021/09/23 19:42:36;;;;;;;36.53;30.02;;;22.90;46.80;;;;;;4375954;60;21696;-33
2021/09/23 19:47:37;;;;;;;33.75;28.62;;;22.90;46.80;;;;;;4328527;64;21169;-35
2021/09/23 19:52:38;;;;;;;37.55;29.17;;;22.90;46.90;;;;;;4343652;61;21088;-33
2021/09/23 19:57:39;;;;;;;35.40;29.20;;;22.80;46.80;;;;;;4345845;61;21183;-31
2021/09/23 20:02:40;;;;;;;34.00;28.85;;;22.90;46.80;;;;;;4335627;61;21967;-27
2021/09/23 20:07:42;;;;;;;33.58;28.00;;;22.90;46.90;;;;;;4329713;61;21116;-34
2021/09/23 20:12:43;;;;;;;32.88;27.92;;;22.90;46.90;;;;;;4342582;61;21542;-33
2021/09/23 20:17:44;;;;;;;34.33;29.20;;;22.90;46.90;;;;;;4342270;61;21173;-34
2021/09/23 20:22:46;;;;;;;36.17;29.73;;;22.90;46.90;;;;;;4339087;61;21178;-32
2021/09/23 20:27:47;;;;;;;37.50;29.80;;;22.90;46.90;;;;;;4329136;64;21097;-33
2021/09/23 20:32:49;;;;;;;36.53;30.17;;;22.80;46.90;;;;;;4417834;60;21575;-31
2021/09/23 20:37:50;;;;;;;36.45;30.33;;;22.80;46.90;;;;;;4328463;64;21570;-32
2021/09/23 20:42:50;;;;;;;33.38;28.87;;;22.80;47.00;;;;;;4328671;61;21077;-36
2021/09/23 20:47:53;;;;;;;36.08;30.48;;;22.80;47.00;;;;;;4333731;61;21559;-31
2021/09/23 20:52:54;;;;;;;35.15;29.58;;;22.80;47.00;;;;;;4346566;61;21620;-34
2021/09/23 20:58:09;;;;;;;36.38;29.17;;;22.80;47.00;;;;;;4338044;61;21133;-33
2021/09/23 21:03:12;;;;;;;35.55;29.73;;;22.80;47.00;;;;;;4342426;61;21653;-32
2021/09/23 21:08:13;;;;;;;36.95;29.40;;;22.80;47.00;;;;;;4346406;61;21754;-32
2021/09/23 21:13:14;;;;;;;34.88;29.30;;;22.80;47.00;;;;;;4416965;61;21120;-33
2021/09/23 21:18:15;;;;;;;35.45;30.20;;;22.80;47.10;;;;;;4352257;61;21122;-32
2021/09/23 21:23:16;;;;;;;33.28;28.15;;;22.80;47.00;;;;;;4365613;60;21073;-32
2021/09/23 21:28:16;;;;;;;33.97;28.30;;;22.80;47.00;;;;;;4345145;61;21547;-29
2021/09/23 21:33:19;;;;;;;35.22;29.10;;;22.80;47.10;;;;;;4354181;61;21086;-28
2021/09/23 21:38:21;;;;;;;33.10;29.17;;;22.80;47.00;;;;;;4361775;61;21600;-30
2021/09/23 21:43:22;;;;;;;34.30;27.98;;;22.80;47.00;;;;;;4333135;60;21595;-32
2021/09/23 21:48:23;;;;;;;32.50;28.35;;;22.80;47.10;;;;;;4328582;64;21069;-34
2021/09/23 21:53:23;;;;;;;34.70;28.65;;;22.80;47.00;;;;;;4365401;61;21200;-34
2021/09/23 21:58:24;;;;;;;37.33;29.77;;;22.80;47.00;;;;;;4339883;61;21080;-34
2021/09/23 22:03:25;;;;;;;34.47;28.83;;;22.80;47.00;;;;;;4330566;61;22048;-33
2021/09/23 22:08:26;;;;;;;35.25;28.77;;;22.80;47.00;;;;;;4332713;61;21089;-33
2021/09/23 22:13:27;;;;;;;33.67;28.62;;;22.80;47.00;;;;;;4361307;61;21547;-32
2021/09/23 22:18:28;;;;;;;33.42;27.60;;;22.80;47.00;;;;;;4338988;61;21144;-32
2021/09/23 22:23:29;;;;;;;33.80;28.45;;;22.80;47.00;;;;;;4328531;64;21065;-26
2021/09/23 22:28:31;;;;;;;36.55;28.70;;;22.70;47.40;;;;;;4362985;61;21592;-32
2021/09/23 22:33:33;;;;;;;34.25;27.92;;;22.80;47.00;;;;;;4350997;61;21068;-30
2021/09/23 22:38:34;;;;;;;33.20;28.65;;;22.70;47.00;;;;;;4328647;64;21181;-35
2021/09/23 22:43:34;;;;;;;36.35;29.02;;;22.70;46.90;;;;;;4349625;61;21077;-33
2021/09/23 22:48:35;;;;;;;34.15;28.02;;;22.70;46.90;;;;;;4338947;61;21069;-34
2021/09/23 22:53:36;;;;;;;34.30;27.98;;;22.70;46.90;;;;;;4328798;64;21106;-34
2021/09/23 22:58:37;;;;;;;33.25;28.02;;;22.70;46.90;;;;;;4380856;61;21578;-33
2021/09/23 23:03:38;;;;;;;33.75;27.98;;;22.70;46.90;;;;;;4351721;60;21641;-31
2021/09/23 23:08:39;;;;;;;32.92;26.98;;;22.70;47.00;;;;;;4337025;60;21598;-32
2021/09/23 23:13:40;;;;;;;33.90;27.67;;;22.70;46.90;;;;;;4328707;64;21110;-32
2021/09/23 23:18:41;;;;;;;34.20;27.58;;;22.70;46.90;;;;;;4331983;60;21138;-34
2021/09/23 23:23:41;;;;;;;34.15;27.35;;;22.70;46.90;;;;;;4328725;64;21053;-33
2021/09/23 23:28:42;;;;;;;34.30;26.48;;;22.70;46.90;;;;;;4404782;61;21157;-32
2021/09/23 23:33:43;;;;;;;33.45;27.27;;;22.70;46.90;;;;;;4328320;61;21088;-33
2021/09/23 23:38:44;;;;;;;32.78;26.25;;;22.70;46.90;;;;;;4328335;64;21116;-35
2021/09/23 23:43:45;;;;;;;31.98;26.08;;;22.70;46.90;;;;;;4328133;64;21130;-30
2021/09/23 23:48:46;;;;;;;33.53;27.42;;;22.70;46.80;;;;;;4328610;64;22083;-33
2021/09/23 23:53:47;;;;;;;30.70;24.98;;;22.70;46.90;;;;;;4328834;64;21093;-26
2021/09/23 23:58:48;;;;;;;31.73;26.20;;;22.70;46.80;;;;;;4328173;64;21190;-32
